Time;durP1;ratioP1;P1;durP2;ratioP2;P2;SDS_P1;SDS_P2;PMS_P1;PMS_P2;Temp;Humidity;BMP_temperature;BMP_pressure;BME280_temperature;BME280_humidity;BME280_pressure;Samples;Min_cycle;Max_cycle;Signal;HPM_P1;HPM_P2
2022/10/15 00:00:48;;;;;;;97.00;49.53;;;12.20;99.90;;;;;;5054737;28;20036;-57
2022/10/15 00:03:14;;;;;;;124.63;55.93;;;12.20;99.90;;;;;;5065811;28;20504;-58
2022/10/15 00:05:40;;;;;;;97.20;50.17;;;12.10;99.90;;;;;;5069094;28;20287;-57
2022/10/15 00:08:07;;;;;;;100.75;52.00;;;12.10;99.90;;;;;;5069575;28;20282;-58
2022/10/15 00:10:33;;;;;;;98.63;52.45;;;12.10;99.90;;;;;;5056048;28;20093;-57
2022/10/15 00:12:59;;;;;;;86.97;47.42;;;12.10;99.90;;;;;;5057532;28;20117;-54
2022/10/15 00:15:25;;;;;;;85.72;50.63;;;12.20;99.90;;;;;;5049604;28;20117;-56
2022/10/15 00:17:51;;;;;;;95.57;50.88;;;12.10;99.90;;;;;;5065663;28;20036;-57
2022/10/15 00:20:16;;;;;;;120.07;55.35;;;12.20;99.90;;;;;;5059800;28;20029;-57
2022/10/15 00:22:42;;;;;;;89.18;51.13;;;12.20;99.90;;;;;;5064782;28;20513;-57
2022/10/15 00:25:08;;;;;;;110.67;52.63;;;12.10;99.90;;;;;;5069098;28;20059;-57
2022/10/15 00:27:35;;;;;;;118.20;54.50;;;12.20;99.90;;;;;;5057025;28;20383;-56
2022/10/15 00:30:02;;;;;;;;;;;12.10;99.90;;;;;;5052960;28;20037;-56
2022/10/15 00:32:28;;;;;;;115.50;53.40;;;12.10;99.90;;;;;;5055940;28;19927;-55
2022/10/15 00:34:53;;;;;;;100.90;51.50;;;12.10;99.90;;;;;;5052395;28;20037;-56
2022/10/15 00:37:20;;;;;;;112.00;53.40;;;12.10;99.90;;;;;;5064630;28;20048;-54
2022/10/15 00:39:45;;;;;;;;;;;12.10;99.90;;;;;;5071876;28;20048;-58
2022/10/15 00:42:11;;;;;;;112.93;53.80;;;12.10;99.90;;;;;;5066737;28;19923;-56
2022/10/15 00:44:48;;;;;;;123.60;53.60;;;12.10;99.90;;;;;;5061001;28;20060;-57
2022/10/15 00:47:27;;;;;;;115.45;52.88;;;12.10;99.90;;;;;;5056716;28;20086;-56
2022/10/15 00:49:55;;;;;;;136.18;56.00;;;12.10;99.90;;;;;;5054887;28;20498;-54
2022/10/15 00:52:36;;;;;;;116.97;53.78;;;12.10;99.90;;;;;;5061454;28;20036;-54
2022/10/15 00:55:17;;;;;;;132.82;55.22;;;12.10;99.90;;;;;;5070495;28;20202;-54
2022/10/15 00:57:46;;;;;;;151.80;55.28;;;12.10;99.90;;;;;;5063211;28;20033;-54
2022/10/15 01:00:14;;;;;;;198.57;55.17;;;12.10;99.90;;;;;;5054830;28;20041;-57
2022/10/15 01:02:40;;;;;;;204.57;54.13;;;12.10;99.90;;;;;;5061259;28;20055;-55
2022/10/15 01:05:07;;;;;;;167.38;57.42;;;12.00;99.90;;;;;;5054459;28;20049;-55
2022/10/15 01:07:32;;;;;;;196.57;56.05;;;12.00;99.90;;;;;;5058645;28;20079;-57
2022/10/15 01:09:59;;;;;;;218.70;57.03;;;12.00;99.90;;;;;;5058435;28;20060;-58
2022/10/15 01:13:06;;;;;;;206.27;56.38;;;12.00;99.90;;;;;;5060169;28;20040;-57
2022/10/15 01:15:42;;;;;;;281.85;63.83;;;12.00;99.90;;;;;;5053179;28;20041;-58
2022/10/15 01:18:14;;;;;;;220.10;54.43;;;12.00;99.90;;;;;;5064095;28;20102;-56
2022/10/15 01:21:02;;;;;;;203.35;52.90;;;11.90;99.90;;;;;;5071799;28;20043;-57
2022/10/15 01:24:08;;;;;;;202.25;53.17;;;11.90;99.90;;;;;;5060590;28;20510;-56
2022/10/15 01:26:53;;;;;;;210.85;54.45;;;11.90;99.90;;;;;;5053465;28;20063;-58
2022/10/15 01:29:32;;;;;;;393.08;76.82;;;11.90;99.90;;;;;;5053493;28;20045;-58
2022/10/15 01:32:23;;;;;;;214.63;58.88;;;11.90;99.90;;;;;;5054029;28;20087;-54
2022/10/15 01:34:54;;;;;;;167.40;55.22;;;11.80;99.90;;;;;;5048202;28;20045;-55
2022/10/15 01:37:36;;;;;;;285.70;58.97;;;11.80;99.90;;;;;;5053989;28;20037;-58
2022/10/15 01:40:11;;;;;;;197.30;54.03;;;11.80;99.90;;;;;;5053012;28;20046;-58
2022/10/15 01:42:50;;;;;;;159.85;56.33;;;11.80;99.90;;;;;;5062668;28;20036;-57
2022/10/15 01:45:21;;;;;;;215.32;53.45;;;11.80;99.90;;;;;;5059878;28;20051;-57
2022/10/15 01:48:09;;;;;;;179.68;53.47;;;11.70;99.90;;;;;;5062824;28;20048;-57
2022/10/15 01:50:46;;;;;;;159.23;52.08;;;11.70;99.90;;;;;;5071675;28;20029;-55
2022/10/15 01:53:18;;;;;;;163.30;51.60;;;11.70;99.90;;;;;;5068560;28;20056;-57
2022/10/15 01:55:44;;;;;;;116.88;48.22;;;11.70;99.90;;;;;;5059083;28;20051;-56
2022/10/15 01:58:11;;;;;;;137.15;55.65;;;11.70;99.90;;;;;;5067884;28;20029;-58
2022/10/15 02:00:40;;;;;;;110.75;48.53;;;11.70;99.90;;;;;;5053689;28;20033;-55
2022/10/15 02:03:05;;;;;;;96.53;46.35;;;11.70;99.90;;;;;;5054467;28;20371;-57
2022/10/15 02:05:37;;;;;;;100.13;46.77;;;11.70;99.90;;;;;;5052614;28;20036;-56
2022/10/15 02:08:13;;;;;;;92.22;47.33;;;11.70;99.90;;;;;;5055829;28;20079;-57
2022/10/15 02:10:55;;;;;;;105.10;49.08;;;11.70;99.90;;;;;;5071075;28;20037;-58
2022/10/15 02:13:29;;;;;;;91.03;46.95;;;11.70;99.90;;;;;;5060511;28;20047;-57
2022/10/15 02:16:15;;;;;;;101.43;49.22;;;11.70;99.90;;;;;;5070788;28;20033;-56
2022/10/15 02:18:51;;;;;;;132.23;54.20;;;11.70;99.90;;;;;;5065131;28;20537;-57
2022/10/15 02:21:20;;;;;;;102.53;49.83;;;11.70;99.90;;;;;;5058683;28;20035;-55
2022/10/15 02:24:00;;;;;;;124.05;57.75;;;11.70;99.90;;;;;;5056859;28;20040;-54
2022/10/15 02:26:29;;;;;;;110.80;51.80;;;11.70;99.90;;;;;;5069141;28;20051;-56
2022/10/15 02:28:58;;;;;;;95.50;48.17;;;11.70;99.90;;;;;;5063448;28;20049;-58
2022/10/15 02:31:25;;;;;;;95.47;49.13;;;11.70;99.90;;;;;;5052083;28;20048;-57
2022/10/15 02:33:59;;;;;;;114.32;50.53;;;11.70;99.90;;;;;;5057950;28;20133;-56
2022/10/15 02:36:25;;;;;;;94.32;49.75;;;11.70;99.90;;;;;;5058685;28;20045;-57
2022/10/15 02:38:55;;;;;;;100.22;48.13;;;11.70;99.90;;;;;;5064773;28;20041;-58
2022/10/15 02:41:21;;;;;;;102.40;48.28;;;11.70;99.90;;;;;;5051095;28;20116;-59
2022/10/15 02:43:47;;;;;;;93.88;47.60;;;11.70;99.90;;;;;;5068299;28;20178;-57
2022/10/15 02:46:14;;;;;;;98.45;48.67;;;11.70;99.90;;;;;;5070175;28;20040;-58
2022/10/15 02:48:40;;;;;;;99.75;49.80;;;11.70;99.90;;;;;;5068635;28;20425;-56
2022/10/15 02:51:06;;;;;;;85.93;47.43;;;11.70;99.90;;;;;;5056055;28;20033;-55
2022/10/15 02:53:32;;;;;;;83.87;43.37;;;11.60;99.90;;;;;;5057437;28;20372;-56
2022/10/15 02:55:57;;;;;;;100.35;48.88;;;11.60;99.90;;;;;;5055580;28;20286;-57
2022/10/15 02:58:23;;;;;;;86.60;44.88;;;11.60;99.90;;;;;;5050965;28;20448;-55
2022/10/15 03:00:49;;;;;;;85.75;44.80;;;11.60;99.90;;;;;;5051482;28;20406;-56
2022/10/15 03:03:15;;;;;;;89.88;45.72;;;11.60;99.90;;;;;;5070484;28;20037;-55
2022/10/15 03:05:42;;;;;;;87.30;45.15;;;11.60;99.90;;;;;;5070987;28;20071;-58
2022/10/15 03:08:07;;;;;;;90.35;43.95;;;11.60;99.90;;;;;;5052163;28;20051;-56
2022/10/15 03:10:33;;;;;;;82.17;43.87;;;11.60;99.90;;;;;;5050834;28;20041;-57
2022/10/15 03:13:03;;;;;;;83.77;47.13;;;11.60;99.90;;;;;;5066903;28;20046;-57
2022/10/15 03:15:29;;;;;;;85.82;45.50;;;11.70;99.90;;;;;;5067122;28;20294;-58
2022/10/15 03:17:54;;;;;;;81.47;45.08;;;11.70;99.90;;;;;;5052151;28;20037;-56
2022/10/15 03:20:20;;;;;;;73.40;41.10;;;11.70;99.90;;;;;;5054243;28;20029;-57
2022/10/15 03:22:45;;;;;;;75.15;43.03;;;11.70;99.90;;;;;;5056672;28;20036;-56
2022/10/15 03:25:11;;;;;;;80.43;43.22;;;11.60;99.90;;;;;;5050414;28;20041;-54
2022/10/15 03:27:37;;;;;;;81.60;44.97;;;11.70;99.90;;;;;;5063343;28;20041;-56
2022/10/15 03:30:02;;;;;;;77.60;41.63;;;11.60;99.90;;;;;;5070411;28;20147;-58
2022/10/15 03:32:28;;;;;;;69.10;41.83;;;11.70;99.90;;;;;;5060314;28;20306;-55
2022/10/15 03:34:53;;;;;;;77.93;41.07;;;11.60;99.90;;;;;;5050665;28;20036;-57
2022/10/15 03:37:19;;;;;;;72.60;40.03;;;11.70;99.90;;;;;;5051994;28;20107;-56
2022/10/15 03:39:44;;;;;;;68.80;40.23;;;11.60;99.90;;;;;;5050576;28;20823;-58
2022/10/15 03:42:10;;;;;;;68.97;40.00;;;11.60;99.90;;;;;;5061437;28;20037;-56
2022/10/15 03:44:36;;;;;;;63.60;37.13;;;11.60;99.90;;;;;;5050396;28;20033;-57
2022/10/15 03:47:01;;;;;;;58.00;36.90;;;11.60;99.90;;;;;;5069008;28;20279;-58
2022/10/15 03:49:27;;;;;;;59.70;34.33;;;11.60;99.90;;;;;;5050550;28;20060;-57
2022/10/15 03:51:52;;;;;;;60.30;37.23;;;11.50;99.90;;;;;;5053708;28;20040;-57
2022/10/15 03:54:18;;;;;;;62.80;35.77;;;11.50;99.90;;;;;;5069539;28;20295;-57
2022/10/15 03:56:43;;;;;;;54.37;34.57;;;11.60;99.90;;;;;;5069118;28;20052;-57
2022/10/15 03:59:09;;;;;;;56.83;34.73;;;11.50;99.90;;;;;;5051609;28;20102;-57
2022/10/15 04:01:34;;;;;;;52.57;35.90;;;11.50;99.90;;;;;;5050491;28;20098;-56
2022/10/15 04:04:00;;;;;;;62.10;35.87;;;11.50;99.90;;;;;;5050880;28;20128;-57
2022/10/15 04:06:25;;;;;;;66.77;37.93;;;11.50;99.90;;;;;;5050403;28;20108;-55
2022/10/15 04:08:51;;;;;;;59.00;35.10;;;11.50;99.90;;;;;;5064263;28;20041;-54
2022/10/15 04:11:16;;;;;;;65.63;38.17;;;11.50;99.90;;;;;;5070043;28;20267;-57
2022/10/15 04:13:42;;;;;;;57.13;36.23;;;11.50;99.90;;;;;;5053893;28;20041;-56
2022/10/15 04:16:07;;;;;;;61.57;37.30;;;11.50;99.90;;;;;;5057349;28;20036;-58
2022/10/15 04:18:33;;;;;;;59.15;36.05;;;11.60;99.90;;;;;;5056647;28;20097;-56
2022/10/15 04:20:59;;;;;;;63.13;38.95;;;11.60;99.90;;;;;;5059083;28;20512;-57
2022/10/15 04:23:25;;;;;;;58.58;37.30;;;11.50;99.90;;;;;;5068096;28;20041;-55
2022/10/15 04:25:51;;;;;;;63.60;38.33;;;11.50;99.90;;;;;;5070113;28;20067;-55
2022/10/15 04:28:16;;;;;;;67.13;38.17;;;11.50;99.90;;;;;;5058556;28;20123;-57
2022/10/15 04:30:42;;;;;;;68.27;42.70;;;11.60;99.90;;;;;;5059855;28;20294;-54
2022/10/15 04:33:08;;;;;;;65.23;39.97;;;11.50;99.90;;;;;;5060704;28;20312;-57
2022/10/15 04:35:33;;;;;;;68.32;38.65;;;11.50;99.90;;;;;;5067731;28;20129;-58
2022/10/15 04:37:59;;;;;;;60.40;37.17;;;11.50;99.90;;;;;;5054045;28;20510;-58
2022/10/15 04:40:25;;;;;;;70.43;43.00;;;11.50;99.90;;;;;;5066624;28;20029;-56
2022/10/15 04:42:51;;;;;;;67.15;41.05;;;11.50;99.90;;;;;;5054178;28;20147;-57
2022/10/15 04:45:17;;;;;;;66.73;39.87;;;11.40;99.90;;;;;;5061853;28;20037;-56
2022/10/15 04:47:43;;;;;;;62.20;39.17;;;11.40;99.90;;;;;;5063170;28;20045;-57
2022/10/15 04:50:09;;;;;;;67.53;39.13;;;11.40;99.90;;;;;;5067729;28;20042;-57
2022/10/15 04:52:35;;;;;;;67.70;38.65;;;11.30;99.90;;;;;;5054543;28;20040;-57
2022/10/15 04:55:02;;;;;;;62.40;39.17;;;11.30;99.90;;;;;;5063585;28;20033;-58
2022/10/15 04:57:27;;;;;;;61.13;38.38;;;11.30;99.90;;;;;;5049699;28;20029;-57
2022/10/15 04:59:53;;;;;;;62.20;37.42;;;11.30;99.90;;;;;;5067904;28;20512;-57
2022/10/15 05:02:19;;;;;;;64.05;40.35;;;11.30;99.90;;;;;;5061882;28;20102;-57
2022/10/15 05:04:44;;;;;;;70.15;39.97;;;11.20;99.90;;;;;;5049703;28;20045;-57
2022/10/15 05:07:10;;;;;;;64.63;39.70;;;11.20;99.90;;;;;;5049042;28;20375;-54
2022/10/15 05:09:35;;;;;;;66.00;39.27;;;11.20;99.90;;;;;;5051874;28;20310;-56
2022/10/15 05:12:01;;;;;;;69.37;39.93;;;11.20;99.90;;;;;;5051662;28;20489;-55
2022/10/15 05:14:27;;;;;;;63.60;39.20;;;11.10;99.90;;;;;;5063617;28;20043;-56
2022/10/15 05:16:52;;;;;;;74.50;42.10;;;11.10;99.90;;;;;;5073359;28;20067;-55
2022/10/15 05:19:18;;;;;;;65.00;38.00;;;11.10;99.90;;;;;;5075511;28;20039;-56
2022/10/15 05:21:43;;;;;;;61.97;39.38;;;11.10;99.90;;;;;;5071429;28;20128;-57
2022/10/15 05:24:10;;;;;;;81.57;41.77;;;11.00;99.90;;;;;;5061110;28;20420;-58
2022/10/15 05:26:36;;;;;;;77.05;43.15;;;11.00;99.90;;;;;;5057485;28;20078;-57
2022/10/15 05:29:01;;;;;;;79.93;44.20;;;11.00;99.90;;;;;;5061458;28;20040;-57
2022/10/15 05:31:29;;;;;;;81.53;45.27;;;11.00;99.90;;;;;;5063786;28;20044;-58
2022/10/15 05:33:55;;;;;;;76.70;43.13;;;11.00;99.90;;;;;;5059476;28;20295;-57
2022/10/15 05:36:24;;;;;;;78.88;43.75;;;11.00;99.90;;;;;;5072608;28;20028;-58
2022/10/15 05:38:52;;;;;;;78.18;42.45;;;11.00;99.90;;;;;;5066965;28;20040;-56
2022/10/15 05:41:19;;;;;;;74.35;43.67;;;11.00;99.90;;;;;;5053847;28;20103;-56
2022/10/15 05:43:48;;;;;;;;;;;11.00;99.90;;;;;;5054830;28;20150;-56
2022/10/15 05:46:14;;;;;;;86.95;47.25;;;11.00;99.90;;;;;;5052843;28;19917;-57
2022/10/15 05:48:40;;;;;;;80.03;43.55;;;11.00;99.90;;;;;;5058820;28;20047;-56
2022/10/15 05:51:09;;;;;;;88.90;46.40;;;11.00;99.90;;;;;;5061188;28;20048;-57
2022/10/15 05:53:35;;;;;;;79.40;44.08;;;11.10;99.90;;;;;;5056635;28;20291;-55
2022/10/15 05:56:01;;;;;;;91.22;47.08;;;11.10;99.90;;;;;;5054407;28;20037;-57
2022/10/15 05:58:28;;;;;;;95.97;46.87;;;11.20;99.90;;;;;;5059591;28;20472;-57
2022/10/15 06:00:58;;;;;;;83.82;46.00;;;11.20;99.90;;;;;;5071356;28;20408;-57
2022/10/15 06:03:25;;;;;;;87.82;46.97;;;11.20;99.90;;;;;;5071351;28;20040;-56
2022/10/15 06:05:51;;;;;;;85.70;45.13;;;11.30;99.90;;;;;;5057969;28;20508;-56
2022/10/15 06:08:16;;;;;;;90.72;45.45;;;11.30;99.90;;;;;;5058727;28;20037;-58
2022/10/15 06:10:42;;;;;;;90.25;46.20;;;11.30;99.90;;;;;;5059623;28;20074;-58
2022/10/15 06:13:08;;;;;;;91.40;46.08;;;11.40;99.90;;;;;;5071865;28;20078;-57
2022/10/15 06:15:34;;;;;;;81.70;44.13;;;11.40;99.90;;;;;;5069958;28;20493;-57
2022/10/15 06:18:00;;;;;;;79.80;45.60;;;11.40;99.90;;;;;;5071599;28;20079;-55
2022/10/15 06:20:26;;;;;;;78.25;45.13;;;11.40;99.90;;;;;;5061610;28;20037;-56
2022/10/15 06:22:57;;;;;;;76.50;43.20;;;11.50;99.90;;;;;;5052059;28;20498;-58
2022/10/15 06:25:23;;;;;;;84.43;45.42;;;11.50;99.90;;;;;;5060723;28;20040;-54
2022/10/15 06:27:48;;;;;;;77.63;43.65;;;11.50;99.90;;;;;;5052719;28;20047;-57
2022/10/15 06:30:14;;;;;;;73.73;42.97;;;11.60;99.90;;;;;;5053196;28;20033;-57
2022/10/15 06:32:45;;;;;;;73.90;42.77;;;11.60;99.90;;;;;;5058317;28;20052;-57
2022/10/15 06:35:10;;;;;;;79.00;45.97;;;11.60;99.90;;;;;;5054301;28;20286;-57
2022/10/15 06:37:36;;;;;;;72.67;42.73;;;11.60;99.90;;;;;;5068518;28;20040;-57
2022/10/15 06:40:02;;;;;;;75.67;44.63;;;11.70;99.90;;;;;;5071891;28;20033;-56
2022/10/15 06:42:27;;;;;;;65.75;40.50;;;11.70;99.90;;;;;;5069661;28;20113;-55
2022/10/15 06:44:53;;;;;;;73.93;41.40;;;11.70;99.90;;;;;;5063742;28;20163;-56
2022/10/15 06:47:18;;;;;;;73.27;40.87;;;11.70;99.90;;;;;;5055610;28;20076;-58
2022/10/15 06:49:44;;;;;;;67.63;40.70;;;11.80;99.90;;;;;;5055815;28;20541;-56
2022/10/15 06:52:09;;;;;;;74.87;40.97;;;11.80;99.90;;;;;;5070121;28;20048;-56
2022/10/15 06:54:35;;;;;;;66.33;42.27;;;11.80;99.90;;;;;;5068212;28;20497;-54
2022/10/15 06:57:00;;;;;;;75.83;42.70;;;11.90;99.90;;;;;;5051941;28;20286;-56
2022/10/15 06:59:26;;;;;;;72.63;41.43;;;11.90;99.90;;;;;;5050415;28;20490;-53
2022/10/15 07:01:51;;;;;;;72.83;43.63;;;11.90;99.90;;;;;;5068433;28;20298;-60
2022/10/15 07:04:17;;;;;;;64.43;40.70;;;11.90;99.90;;;;;;5064445;28;20076;-59
2022/10/15 07:06:42;;;;;;;67.37;39.87;;;12.00;99.90;;;;;;5059716;28;20045;-58
2022/10/15 07:09:08;;;;;;;68.50;40.08;;;12.00;99.90;;;;;;5070325;28;20064;-57
2022/10/15 07:11:33;;;;;;;69.32;40.55;;;12.00;99.90;;;;;;5070608;28;20115;-59
2022/10/15 07:13:59;;;;;;;66.40;39.63;;;12.10;99.90;;;;;;5070647;28;20044;-59
2022/10/15 07:16:25;;;;;;;63.87;39.50;;;12.10;99.90;;;;;;5070612;28;20094;-58
2022/10/15 07:18:50;;;;;;;64.28;41.20;;;12.20;99.90;;;;;;5057960;28;20037;-59
2022/10/15 07:21:16;;;;;;;68.95;39.92;;;12.20;99.90;;;;;;5083293;28;20043;-59
2022/10/15 07:23:42;;;;;;;68.32;42.20;;;12.20;99.90;;;;;;5050680;28;20049;-59
2022/10/15 07:26:07;;;;;;;71.23;40.40;;;12.30;99.90;;;;;;5050813;28;20136;-55
2022/10/15 07:28:33;;;;;;;66.25;40.08;;;12.50;99.90;;;;;;5051968;28;20282;-59
2022/10/15 07:31:04;;;;;;;64.50;39.15;;;12.60;99.90;;;;;;5050367;28;20045;-58
2022/10/15 07:33:30;;;;;;;61.47;38.85;;;12.60;99.90;;;;;;5050335;28;20049;-59
2022/10/15 07:35:56;;;;;;;59.08;39.42;;;12.70;99.90;;;;;;5051170;28;20147;-58
2022/10/15 07:38:21;;;;;;;60.00;39.13;;;12.70;99.90;;;;;;5052958;28;20055;-55
2022/10/15 07:40:47;;;;;;;63.90;39.73;;;12.80;99.90;;;;;;5057865;28;20501;-58
2022/10/15 07:43:12;;;;;;;58.63;39.43;;;12.80;99.90;;;;;;5069120;28;20287;-58
2022/10/15 07:45:38;;;;;;;56.37;39.80;;;12.80;99.90;;;;;;5062650;28;20283;-58
2022/10/15 07:48:04;;;;;;;56.15;38.33;;;12.90;99.90;;;;;;5050592;28;20048;-56
2022/10/15 07:50:30;;;;;;;55.33;38.95;;;13.00;99.90;;;;;;5060114;28;20041;-57
2022/10/15 07:52:55;;;;;;;55.83;40.28;;;13.00;99.90;;;;;;5050099;28;20096;-58
2022/10/15 07:55:21;;;;;;;62.23;40.53;;;13.10;99.90;;;;;;5051453;28;20080;-59
2022/10/15 07:57:46;;;;;;;59.63;42.90;;;13.20;99.90;;;;;;5069532;28;20040;-58
2022/10/15 08:00:12;;;;;;;63.63;41.27;;;13.30;99.90;;;;;;5061701;28;20284;-59
2022/10/15 08:02:38;;;;;;;66.00;42.55;;;13.30;99.90;;;;;;5051641;28;20390;-56
2022/10/15 08:05:04;;;;;;;;;;;13.30;99.90;;;;;;5056698;28;20047;-57
2022/10/15 08:07:30;;;;;;;65.30;42.83;;;13.30;99.90;;;;;;5051294;28;20015;-59
2022/10/15 08:09:55;;;;;;;71.10;44.20;;;13.30;99.90;;;;;;5053312;28;20095;-57
2022/10/15 08:12:21;;;;;;;67.23;45.27;;;13.40;99.90;;;;;;5052965;28;20288;-58
2022/10/15 08:14:46;;;;;;;65.05;43.88;;;13.40;99.90;;;;;;5049954;28;20379;-55
2022/10/15 08:17:12;;;;;;;66.63;45.40;;;13.50;99.90;;;;;;5064264;28;20043;-57
2022/10/15 08:19:37;;;;;;;69.70;45.45;;;13.50;99.90;;;;;;5059644;28;20051;-57
2022/10/15 08:22:03;;;;;;;73.72;48.53;;;13.60;99.90;;;;;;5063711;28;20094;-57
2022/10/15 08:24:29;;;;;;;72.05;45.58;;;13.60;99.90;;;;;;5068845;28;20036;-59
2022/10/15 08:26:57;;;;;;;63.03;44.72;;;13.60;99.90;;;;;;5068893;28;20497;-58
2022/10/15 08:29:23;;;;;;;64.22;46.67;;;13.70;99.90;;;;;;5067995;28;20040;-54
2022/10/15 08:31:48;;;;;;;66.80;45.30;;;13.80;99.90;;;;;;5056443;28;20048;-59
2022/10/15 08:34:14;;;;;;;72.03;46.17;;;13.80;99.90;;;;;;5049654;28;20498;-59
2022/10/15 08:36:39;;;;;;;65.10;44.77;;;13.80;99.90;;;;;;5061345;28;20701;-57
2022/10/15 08:39:06;;;;;;;64.37;42.30;;;13.90;99.90;;;;;;5065562;28;20283;-59
2022/10/15 08:41:48;;;;;;;61.63;44.67;;;13.90;99.90;;;;;;5059330;28;20427;-59
2022/10/15 08:44:25;;;;;;;69.22;44.75;;;13.90;99.90;;;;;;5053480;28;20098;-59
2022/10/15 08:46:52;;;;;;;;;;;13.80;99.90;;;;;;5060922;28;20050;-58
2022/10/15 08:49:34;;;;;;;70.40;45.17;;;13.70;99.90;;;;;;5066236;28;19963;-56
2022/10/15 08:52:15;;;;;;;62.75;42.03;;;13.70;99.90;;;;;;5052843;28;20055;-58
2022/10/15 08:54:40;;;;;;;66.72;42.53;;;13.60;99.90;;;;;;5050018;28;20563;-58
2022/10/15 08:57:21;;;;;;;69.30;44.77;;;13.50;99.90;;;;;;5053473;28;20037;-58
2022/10/15 09:00:00;;;;;;;69.18;45.03;;;13.40;99.90;;;;;;5058139;28;20591;-58
2022/10/15 09:02:34;;;;;;;72.65;45.03;;;13.30;99.90;;;;;;5057369;28;20049;-58
2022/10/15 09:05:36;;;;;;;80.10;48.55;;;13.20;99.90;;;;;;5053191;28;20047;-58
2022/10/15 09:08:11;;;;;;;88.28;50.22;;;13.10;99.90;;;;;;5053511;28;20044;-58
2022/10/15 09:10:48;;;;;;;82.28;49.05;;;13.20;99.90;;;;;;5064649;28;20123;-58
2022/10/15 09:13:25;;;;;;;83.28;49.17;;;13.10;99.90;;;;;;5052959;28;20045;-58
2022/10/15 09:16:04;;;;;;;84.30;47.72;;;13.10;99.90;;;;;;5070608;28;20097;-58
2022/10/15 09:18:34;;;;;;;87.57;47.78;;;13.10;99.90;;;;;;5073404;28;20083;-58
2022/10/15 09:21:03;;;;;;;84.80;48.47;;;13.00;99.90;;;;;;5070598;28;20084;-58
2022/10/15 09:23:31;;;;;;;88.38;48.90;;;13.00;99.90;;;;;;5067868;28;20056;-57
2022/10/15 09:26:17;;;;;;;84.40;49.35;;;13.00;99.90;;;;;;5062040;28;20044;-57
2022/10/15 09:29:06;;;;;;;78.63;44.83;;;13.00;99.90;;;;;;5053162;28;20124;-59
2022/10/15 09:31:42;;;;;;;77.90;43.97;;;13.00;99.90;;;;;;5054183;28;20405;-56
2022/10/15 09:34:23;;;;;;;73.25;43.50;;;13.00;99.90;;;;;;5052780;28;20041;-58
2022/10/15 09:36:55;;;;;;;81.47;44.70;;;13.00;99.90;;;;;;5053043;28;20120;-59
2022/10/15 09:39:36;;;;;;;75.68;41.10;;;13.10;99.90;;;;;;5053232;28;20037;-58
2022/10/15 09:42:15;;;;;;;69.88;43.65;;;13.10;99.90;;;;;;5063948;28;20036;-59
2022/10/15 09:44:44;;;;;;;73.65;42.83;;;13.10;99.90;;;;;;5059588;28;20075;-58
2022/10/15 09:47:40;;;;;;;78.30;43.60;;;13.10;99.90;;;;;;5072991;28;20056;-58
2022/10/15 09:50:10;;;;;;;74.78;42.45;;;13.10;99.90;;;;;;4982017;28;20043;-57
2022/10/15 09:53:14;;;;;;;65.82;40.63;;;13.20;99.90;;;;;;4982851;28;20046;-59
2022/10/15 09:55:47;;;;;;;64.55;37.90;;;13.20;99.90;;;;;;4976481;28;20474;-55
2022/10/15 09:58:13;;;;;;;60.55;37.90;;;13.30;99.90;;;;;;4991213;28;20042;-59
2022/10/15 10:00:57;;;;;;;58.90;35.77;;;13.30;99.90;;;;;;4980454;28;20086;-59
2022/10/15 10:03:26;;;;;;;56.72;35.42;;;13.40;99.90;;;;;;4985131;28;20300;-58
2022/10/15 10:06:03;;;;;;;56.95;35.60;;;13.50;99.90;;;;;;4976232;28;20229;-58
2022/10/15 10:08:36;;;;;;;56.78;33.85;;;13.50;99.90;;;;;;4979637;28;20042;-58
2022/10/15 10:11:05;;;;;;;50.38;32.33;;;13.60;99.90;;;;;;4971344;28;20134;-59
2022/10/15 10:13:38;;;;;;;42.35;31.23;;;13.70;99.90;;;;;;4970188;28;20070;-58
2022/10/15 10:16:08;;;;;;;46.47;30.63;;;13.80;99.90;;;;;;4957703;28;20066;-57
2022/10/15 10:18:36;;;;;;;42.00;30.58;;;13.90;99.90;;;;;;4955232;28;20181;-59
2022/10/15 10:21:04;;;;;;;45.05;30.45;;;14.00;99.90;;;;;;4982950;28;20410;-59
2022/10/15 10:23:33;;;;;;;37.45;27.55;;;14.10;99.90;;;;;;4989023;28;20038;-59
2022/10/15 10:26:01;;;;;;;39.88;27.23;;;14.10;99.90;;;;;;5005606;28;20045;-58
2022/10/15 10:28:31;;;;;;;43.40;28.83;;;14.20;99.90;;;;;;5051116;28;20095;-60
2022/10/15 10:30:56;;;;;;;38.63;26.80;;;14.20;99.90;;;;;;5066625;28;20444;-59
2022/10/15 10:33:48;;;;;;;33.77;24.67;;;14.20;99.90;;;;;;5064369;28;20036;-59
2022/10/15 10:36:27;;;;;;;33.50;26.15;;;14.30;99.90;;;;;;5053374;28;20037;-58
2022/10/15 10:39:14;;;;;;;37.05;25.42;;;14.40;99.90;;;;;;5059648;28;20049;-60
2022/10/15 10:42:06;;;;;;;29.77;23.20;;;14.40;99.90;;;;;;5070365;28;20113;-58
2022/10/15 10:44:45;;;;;;;39.25;27.27;;;14.70;99.90;;;;;;5060239;28;20649;-60
2022/10/15 10:47:18;;;;;;;26.30;22.52;;;15.00;99.90;;;;;;5052480;28;20041;-60
2022/10/15 10:49:50;;;;;;;28.02;21.10;;;15.10;99.90;;;;;;5056759;28;20044;-59
2022/10/15 10:52:24;;;;;;;28.85;21.63;;;15.10;99.90;;;;;;5056571;28;20432;-59
2022/10/15 10:55:04;;;;;;;29.45;21.52;;;15.20;99.90;;;;;;5061892;28;20036;-60
2022/10/15 10:57:44;;;;;;;24.85;19.83;;;15.20;99.90;;;;;;5057561;28;20033;-59
2022/10/15 11:00:35;;;;;;;24.13;19.08;;;15.20;99.90;;;;;;5069734;28;20044;-58
2022/10/15 11:03:01;;;;;;;25.73;18.15;;;15.10;99.90;;;;;;5070997;28;20453;-59
2022/10/15 11:05:28;;;;;;;26.90;18.83;;;15.00;99.90;;;;;;5059486;28;20119;-60
2022/10/15 11:08:29;;;;;;;21.70;18.65;;;14.90;99.90;;;;;;5058360;28;20052;-60
2022/10/15 11:11:20;;;;;;;23.25;18.80;;;14.80;99.90;;;;;;5068009;28;20044;-59
2022/10/15 11:14:06;;;;;;;26.92;17.95;;;14.80;99.90;;;;;;5050402;28;20339;-59
2022/10/15 11:16:54;;;;;;;25.58;19.38;;;14.80;99.90;;;;;;5069854;28;20036;-61
2022/10/15 11:19:33;;;;;;;25.15;18.83;;;14.80;99.90;;;;;;5068076;28;20061;-60
2022/10/15 11:22:17;;;;;;;23.33;19.13;;;14.80;99.90;;;;;;5051022;28;20040;-60
2022/10/15 11:24:45;;;;;;;26.85;17.75;;;14.80;99.90;;;;;;5066017;28;20044;-59
2022/10/15 11:27:22;;;;;;;23.23;17.58;;;14.80;99.90;;;;;;5063576;28;20166;-58
2022/10/15 11:30:03;;;;;;;23.38;16.42;;;14.80;99.90;;;;;;5068483;28;20056;-59
2022/10/15 11:32:31;;;;;;;25.15;17.65;;;14.80;99.90;;;;;;5050478;28;20044;-60
2022/10/15 11:35:31;;;;;;;66.18;59.05;;;14.90;99.90;;;;;;5051604;28;20045;-59
2022/10/15 11:38:22;;;;;;;22.35;16.55;;;14.90;99.90;;;;;;5050794;28;20049;-58
2022/10/15 11:41:04;;;;;;;18.92;14.88;;;15.00;99.90;;;;;;5055466;28;20405;-59
2022/10/15 11:43:57;;;;;;;18.85;14.95;;;15.00;99.90;;;;;;5050115;28;20501;-60
2022/10/15 11:46:45;;;;;;;20.45;15.70;;;15.00;99.90;;;;;;5061760;28;20037;-58
2022/10/15 11:49:29;;;;;;;21.50;15.80;;;15.00;99.90;;;;;;5069443;28;20374;-58
2022/10/15 11:52:06;;;;;;;21.67;16.08;;;15.10;99.90;;;;;;5068637;28;20497;-60
2022/10/15 11:55:00;;;;;;;23.83;18.35;;;15.20;99.90;;;;;;5070342;28;20040;-57
2022/10/15 11:57:28;;;;;;;40.60;32.90;;;15.20;99.90;;;;;;5052486;28;20498;-59
2022/10/15 12:00:00;;;;;;;22.33;17.35;;;15.30;99.90;;;;;;5051191;28;20052;-57
2022/10/15 12:02:35;;;;;;;21.70;17.25;;;15.30;99.90;;;;;;5051290;28;20036;-56
2022/10/15 12:05:20;;;;;;;24.02;18.23;;;15.30;99.90;;;;;;5050103;28;20033;-56
2022/10/15 12:07:48;;;;;;;25.88;18.33;;;15.30;99.90;;;;;;5049851;28;20033;-56
2022/10/15 12:10:31;;;;;;;19.73;16.30;;;15.20;99.90;;;;;;5051287;28;20049;-58
2022/10/15 12:13:17;;;;;;;25.77;18.75;;;15.20;99.90;;;;;;5049745;28;20076;-59
2022/10/15 12:16:15;;;;;;;28.30;18.05;;;15.20;99.90;;;;;;5052171;28;20037;-58
2022/10/15 12:19:10;;;;;;;28.88;19.60;;;15.10;99.90;;;;;;5070070;28;20490;-59
2022/10/15 12:21:59;;;;;;;37.88;28.45;;;15.10;99.90;;;;;;5063092;28;20044;-59
2022/10/15 12:24:38;;;;;;;34.33;21.95;;;15.10;99.90;;;;;;5069694;28;20405;-59
2022/10/15 12:27:19;;;;;;;27.23;20.63;;;15.10;99.90;;;;;;5061906;28;20048;-58
2022/10/15 12:30:01;;;;;;;52.72;45.67;;;15.00;99.90;;;;;;5069126;28;20048;-58
2022/10/15 12:32:30;;;;;;;28.35;20.65;;;15.00;99.90;;;;;;5058171;28;20421;-59
2022/10/15 12:35:02;;;;;;;42.65;28.35;;;15.00;99.90;;;;;;5083973;28;20040;-60
2022/10/15 12:37:33;;;;;;;31.73;21.85;;;15.10;99.90;;;;;;5075427;28;20043;-55
2022/10/15 12:40:06;;;;;;;44.60;35.78;;;15.00;99.90;;;;;;5070594;28;20501;-60
2022/10/15 12:42:38;;;;;;;31.48;21.55;;;15.00;99.90;;;;;;5062927;28;20178;-60
2022/10/15 12:45:20;;;;;;;40.33;24.77;;;15.00;99.90;;;;;;5049457;28;20116;-60
2022/10/15 12:47:49;;;;;;;31.50;22.48;;;15.00;99.90;;;;;;5059174;28;20040;-60